createdAt,value
2018-07-23T00:08:20.406Z,7.14
2018-07-23T00:08:20.436Z,8.35
2018-07-23T00:08:20.448Z,8.35
2018-07-23T00:08:20.479Z,8.35
2018-07-23T00:14:15.395Z,6.52
2018-07-23T00:20:10.372Z,7.13
2018-07-23T00:26:05.435Z,11.72
2018-07-23T00:32:00.374Z,7.77
2018-07-23T00:37:55.422Z,7.4
2018-07-23T00:43:50.402Z,8.54
2018-07-23T00:49:45.442Z,10.56
2018-07-23T00:55:40.402Z,8.05
2018-07-23T01:01:35.418Z,13.27
2018-07-23T01:07:30.410Z,8.5
2018-07-23T01:13:25.418Z,10.74
2018-07-23T01:19:20.432Z,9.24
2018-07-23T01:25:15.426Z,11.34
2018-07-23T01:31:10.433Z,9.83
2018-07-23T01:37:05.390Z,12.12
2018-07-23T01:43:00.408Z,10.58
2018-07-23T01:48:55.439Z,7.59
2018-07-23T01:54:50.461Z,9.83
2018-07-23T02:00:45.440Z,9.84
2018-07-23T02:06:40.426Z,5.17
2018-07-23T02:12:35.462Z,2.79
2018-07-23T02:18:30.417Z,5.34
2018-07-23T02:24:25.462Z,5.57
2018-07-23T02:30:20.463Z,8.4
2018-07-23T02:36:15.444Z,4.11
2018-07-23T02:42:10.471Z,4.64
2018-07-23T02:48:05.449Z,2.1
2018-07-23T03:11:45.458Z,4.98
2018-07-23T03:11:45.590Z,5.32
2018-07-23T03:11:45.617Z,5.32
2018-07-23T03:11:45.676Z,5.32
2018-07-23T03:17:40.542Z,3.56
2018-07-23T03:23:35.477Z,3.08
2018-07-23T03:29:30.443Z,3.93
2018-07-23T03:35:25.455Z,3.92
2018-07-23T03:41:20.444Z,2.04
2018-07-23T03:47:15.446Z,3.37
2018-07-23T03:53:10.463Z,2.64
2018-07-23T03:59:05.445Z,3.53
2018-07-23T04:05:00.459Z,2.32
2018-07-23T04:10:55.548Z,3.05
2018-07-23T04:16:50.486Z,8.22
2018-07-23T04:22:45.451Z,2.74
2018-07-23T04:28:40.462Z,4.97
2018-07-23T04:34:35.465Z,4.42
2018-07-23T04:40:30.460Z,4.67
2018-07-23T04:46:25.460Z,6.17
2018-07-23T04:52:20.535Z,4.29
2018-07-23T04:58:15.515Z,3.63
2018-07-23T05:04:10.479Z,5.22
2018-07-23T05:10:05.514Z,3.83
2018-07-23T05:16:00.547Z,4.24
2018-07-23T05:21:55.471Z,8.21
2018-07-23T05:27:50.508Z,2.84
2018-07-23T05:33:45.457Z,2.63
2018-07-23T05:39:40.478Z,2.78
2018-07-23T05:45:35.514Z,2.54
2018-07-23T06:09:15.513Z,5.48
2018-07-23T06:09:15.528Z,2.74
2018-07-23T06:09:15.548Z,2.74
2018-07-23T06:09:15.573Z,2.74
2018-07-23T06:15:10.513Z,5.87
2018-07-23T06:21:05.523Z,3.39
2018-07-23T06:27:00.476Z,2.55
2018-07-23T06:32:55.476Z,4.52
2018-07-23T06:38:50.488Z,2.65
2018-07-23T06:44:45.475Z,4.41
2018-07-23T06:50:40.491Z,2.6
2018-07-23T06:56:35.496Z,3.23
2018-07-23T07:02:30.508Z,6.28
2018-07-23T07:08:25.561Z,5.15
2018-07-23T07:14:20.551Z,3.52
2018-07-23T07:20:15.564Z,4.89
2018-07-23T07:26:10.505Z,3.73
2018-07-23T07:32:05.494Z,5.12
2018-07-23T07:38:00.642Z,7.73
2018-07-23T07:43:55.554Z,3.69
2018-07-23T07:49:50.556Z,4.87
2018-07-23T07:55:45.518Z,5.43
2018-07-23T08:01:40.638Z,4.21
2018-07-23T08:07:35.520Z,4.55
2018-07-23T08:13:30.586Z,3.54
2018-07-23T08:19:25.541Z,3.11
2018-07-23T08:25:20.530Z,3.45
2018-07-23T08:31:15.530Z,3.61
2018-07-23T08:37:10.589Z,2.94
2018-07-23T08:43:05.571Z,2.41
2018-07-23T08:49:00.578Z,3.17
2018-07-23T09:12:40.573Z,3.44
2018-07-23T09:12:40.608Z,2.26
2018-07-23T09:12:40.640Z,2.26
2018-07-23T09:12:40.647Z,2.26
2018-07-23T09:18:35.551Z,2.09
2018-07-23T09:24:30.550Z,3.97
2018-07-23T09:30:25.556Z,2.89
2018-07-23T09:36:20.557Z,2.78
2018-07-23T09:42:15.567Z,3.41
2018-07-23T09:48:10.588Z,3.9
2018-07-23T09:54:05.547Z,2.78
2018-07-23T10:00:00.601Z,2.83
2018-07-23T10:05:55.602Z,3.87
2018-07-23T10:11:50.604Z,2.86
2018-07-23T10:17:45.574Z,4.61
2018-07-23T10:23:40.601Z,4.25
2018-07-23T10:29:35.641Z,4.19
2018-07-23T10:35:30.585Z,5.46
2018-07-23T10:41:25.576Z,5.27
2018-07-23T10:47:20.591Z,5.34
2018-07-23T10:53:15.591Z,5.71
2018-07-23T10:59:10.578Z,5.55
2018-07-23T11:05:05.624Z,4.83
2018-07-23T11:11:00.590Z,5.57
2018-07-23T11:16:55.583Z,5.93
2018-07-23T11:22:50.597Z,4.82
2018-07-23T11:28:45.619Z,4.81
2018-07-23T11:34:40.601Z,5.92
2018-07-23T11:40:35.600Z,5.12
2018-07-23T11:46:30.679Z,5.73
2018-07-23T12:10:10.641Z,4.9
2018-07-23T12:10:10.695Z,4.51
2018-07-23T12:10:10.711Z,4.51
2018-07-23T12:10:10.748Z,4.51
2018-07-23T12:16:05.612Z,5.67
2018-07-23T12:22:00.638Z,5.33
2018-07-23T12:27:55.666Z,5.39
2018-07-23T12:33:50.627Z,5.08
2018-07-23T12:39:45.742Z,4.56
2018-07-23T12:45:40.630Z,3.83
2018-07-23T12:51:35.705Z,4.34
2018-07-23T12:57:30.630Z,4.53
2018-07-23T13:03:25.646Z,4.52
2018-07-23T13:09:20.649Z,5.57
2018-07-23T13:15:15.651Z,4.04
2018-07-23T13:21:10.707Z,4.04
2018-07-23T13:27:05.657Z,4.5
2018-07-23T13:33:00.642Z,4.15
2018-07-23T13:38:55.689Z,3.76
2018-07-23T13:44:50.675Z,3.74
2018-07-23T13:50:45.734Z,5.39
2018-07-23T13:56:40.688Z,3.68
2018-07-23T14:02:35.712Z,4.44
2018-07-23T14:08:30.680Z,3.57
2018-07-23T14:14:25.670Z,4.14
2018-07-23T14:20:20.691Z,4.33
2018-07-23T14:26:15.673Z,3.71
2018-07-23T14:32:10.677Z,3.34
2018-07-23T14:38:05.688Z,3.98
2018-07-23T14:44:00.701Z,5.44
2018-07-23T14:49:55.723Z,4.85
2018-07-23T15:13:35.715Z,6.6
2018-07-23T15:13:35.860Z,5.56
2018-07-23T15:13:35.865Z,5.56
2018-07-23T15:13:35.926Z,5.56
2018-07-23T15:19:30.795Z,5.4
2018-07-23T15:25:25.758Z,5.1
2018-07-23T15:31:20.747Z,5.54
2018-07-23T15:37:15.714Z,6.17
2018-07-23T15:43:10.745Z,6.55
2018-07-23T15:49:05.745Z,5.73
2018-07-23T15:55:00.735Z,5.22
2018-07-23T16:00:55.745Z,4.9
2018-07-23T16:06:50.757Z,7.54
2018-07-23T16:12:45.714Z,5.36
2018-07-23T16:18:40.705Z,5.27
2018-07-23T16:24:35.775Z,4.2
2018-07-23T16:30:30.768Z,4.4
2018-07-23T16:36:25.776Z,5.71
2018-07-23T16:42:20.744Z,5.7
2018-07-23T16:48:15.795Z,4.77
2018-07-23T16:54:10.844Z,9.67
2018-07-23T17:00:05.806Z,4.24
2018-07-23T17:06:00.795Z,4.74
2018-07-23T17:11:55.784Z,5.02
2018-07-23T17:17:50.804Z,4.99
2018-07-23T17:23:45.754Z,6.42
2018-07-23T17:29:40.755Z,5.35
2018-07-23T17:35:35.765Z,4.24
2018-07-23T17:41:30.759Z,4.78
2018-07-23T17:47:25.865Z,5.13
2018-07-23T18:11:05.830Z,5.17
2018-07-23T18:11:06.008Z,4.44
2018-07-23T18:11:06.015Z,4.44
2018-07-23T18:11:06.065Z,4.44
2018-07-23T18:17:00.783Z,6.73
2018-07-23T18:22:55.801Z,7
2018-07-23T18:28:50.855Z,7.56
2018-07-23T18:34:45.818Z,6.22
2018-07-23T18:40:40.874Z,5.15
2018-07-23T18:46:35.807Z,5.48
2018-07-23T18:52:30.801Z,6.13
2018-07-23T18:58:25.789Z,6.48
2018-07-23T19:04:20.845Z,6.67
2018-07-23T19:10:15.808Z,7.14
2018-07-23T19:16:10.810Z,6.92
2018-07-23T19:22:05.802Z,5.83
2018-07-23T19:28:00.842Z,6.22
2018-07-23T19:33:55.844Z,6.4
2018-07-23T19:39:50.819Z,6
2018-07-23T19:45:45.813Z,4.67
2018-07-23T19:51:40.849Z,6.57
2018-07-23T19:57:35.875Z,6.89
2018-07-23T20:03:30.829Z,5.47
2018-07-23T20:09:25.851Z,5.25
2018-07-23T20:15:20.838Z,5.07
2018-07-23T20:21:15.856Z,4.91
2018-07-23T20:27:10.876Z,5.16
2018-07-23T20:33:05.859Z,4.83
2018-07-23T20:39:00.873Z,5.98
2018-07-23T20:44:55.826Z,4.04
2018-07-23T20:50:50.840Z,6.22
2018-07-23T21:14:30.840Z,6.37
2018-07-23T21:14:31.101Z,4.93
2018-07-23T21:14:31.111Z,4.93
2018-07-23T21:14:31.133Z,4.93
2018-07-23T21:20:25.862Z,5.43
2018-07-23T21:26:20.919Z,6.15
2018-07-23T21:32:15.895Z,5.92
2018-07-23T21:38:10.857Z,6.85
2018-07-23T21:44:05.892Z,7.82
2018-07-23T21:50:00.869Z,7.46
2018-07-23T21:55:55.917Z,7.37
2018-07-23T22:01:50.889Z,5.82
2018-07-23T22:07:45.925Z,6.83
2018-07-23T22:13:40.858Z,7.76
2018-07-23T22:19:35.896Z,6.36
2018-07-23T22:25:30.911Z,6.93
2018-07-23T22:31:25.905Z,8.56
2018-07-23T22:37:20.902Z,7.41
2018-07-23T22:43:15.885Z,7.27
2018-07-23T22:49:10.880Z,8.3
2018-07-23T22:55:05.867Z,7.54
2018-07-23T23:01:00.920Z,7
2018-07-23T23:06:55.901Z,6.6
2018-07-23T23:12:50.880Z,6.35
2018-07-23T23:18:45.950Z,6.47
2018-07-23T23:24:40.928Z,7.67
2018-07-23T23:30:35.890Z,9.05
2018-07-23T23:36:30.904Z,7.87
2018-07-23T23:42:25.969Z,8.87
2018-07-23T23:48:20.929Z,5.78
